createdAt,value
2022-11-27T00:01:28.122Z,100824.59
2022-11-27T00:03:56.220Z,100822.84
2022-11-27T00:06:26.829Z,100832.00
2022-11-27T00:08:55.725Z,100835.69
2022-11-27T00:11:24.369Z,100845.09
2022-11-27T00:13:52.029Z,100836.19
2022-11-27T00:16:20.952Z,100829.03
2022-11-27T00:18:48.632Z,100835.47
2022-11-27T00:21:26.366Z,100829.84
2022-11-27T00:23:54.943Z,100838.16
2022-11-27T00:26:22.263Z,100839.81
2022-11-27T00:28:49.574Z,100835.69
2022-11-27T00:31:29.561Z,100843.66
2022-11-27T00:34:01.331Z,100844.94
2022-11-27T00:36:29.786Z,100851.41
2022-11-27T00:38:56.693Z,100849.38
2022-11-27T00:41:30.566Z,100852.69
2022-11-27T00:43:57.634Z,100854.59
2022-11-27T00:46:29.102Z,100858.06
2022-11-27T00:48:57.683Z,100859.81
2022-11-27T00:51:25.526Z,100861.66
2022-11-27T00:53:53.660Z,100858.13
2022-11-27T00:56:26.006Z,100864.84
2022-11-27T00:58:52.957Z,100859.56
2022-11-27T01:01:24.378Z,100857.34
2022-11-27T01:03:51.632Z,100862.56
2022-11-27T01:06:20.181Z,100856.81
2022-11-27T01:08:48.256Z,100860.34
2022-11-27T01:11:20.850Z,100862.91
2022-11-27T01:13:48.484Z,100868.56
2022-11-27T01:16:18.420Z,100858.00
2022-11-27T01:18:47.221Z,100858.59
2022-11-27T01:21:16.291Z,100856.41
2022-11-27T01:23:43.479Z,100871.38
2022-11-27T01:26:12.243Z,100868.75
2022-11-27T01:28:42.330Z,100865.31
2022-11-27T01:31:16.700Z,100863.16
2022-11-27T01:33:45.176Z,100874.69
2022-11-27T01:36:14.113Z,100861.50
2022-11-27T01:38:41.049Z,100864.31
2022-11-27T01:41:17.615Z,100854.25
2022-11-27T01:43:49.277Z,100853.88
2022-11-27T01:46:36.233Z,100849.16
2022-11-27T01:49:24.481Z,100861.47
2022-11-27T01:52:13.088Z,100863.88
2022-11-27T01:54:54.201Z,100865.78
2022-11-27T01:57:27.229Z,100860.63
2022-11-27T01:59:56.887Z,100857.72
2022-11-27T02:02:24.089Z,100857.38
2022-11-27T02:04:51.134Z,100856.13
2022-11-27T02:07:18.098Z,100864.59
2022-11-27T02:09:44.993Z,100858.31
2022-11-27T02:12:27.656Z,100854.97
2022-11-27T02:15:13.292Z,100852.44
2022-11-27T02:17:40.178Z,100857.03
2022-11-27T02:20:25.158Z,100845.94
2022-11-27T02:22:54.830Z,100850.94
2022-11-27T02:25:57.053Z,100850.94
2022-11-27T02:28:59.041Z,100846.13
2022-11-27T02:31:37.209Z,100850.47
2022-11-27T02:34:23.298Z,100847.06
2022-11-27T02:37:00.131Z,100847.69
2022-11-27T02:39:35.199Z,100837.06
2022-11-27T02:42:12.637Z,100854.47
2022-11-27T02:44:46.299Z,100841.47
2022-11-27T02:47:15.372Z,100831.06
2022-11-27T02:49:44.335Z,100853.84
2022-11-27T02:52:13.356Z,100869.63
2022-11-27T02:54:42.234Z,100861.66
2022-11-27T02:57:12.151Z,100857.88
2022-11-27T02:59:42.656Z,100849.38
2022-11-27T03:02:15.080Z,100850.75
2022-11-27T03:04:47.947Z,100857.41
2022-11-27T03:07:47.959Z,100858.59
2022-11-27T03:10:24.562Z,100855.19
2022-11-27T03:12:51.959Z,100854.75
2022-11-27T03:15:20.582Z,100854.06
2022-11-27T03:18:15.759Z,100856.19
2022-11-27T03:20:45.050Z,100851.06
2022-11-27T03:23:11.973Z,100850.06
2022-11-27T03:25:38.844Z,100858.81
2022-11-27T03:28:09.785Z,100857.53
2022-11-27T03:30:36.646Z,100849.91
2022-11-27T03:33:03.517Z,100845.28
2022-11-27T03:35:31.972Z,100847.41
2022-11-27T03:37:58.856Z,100857.91
2022-11-27T03:40:33.462Z,100857.97
2022-11-27T03:43:25.611Z,100855.97
2022-11-27T03:46:07.022Z,100865.00
2022-11-27T03:48:55.314Z,100867.06
2022-11-27T03:51:27.709Z,100873.88
2022-11-27T03:54:09.874Z,100871.53
2022-11-27T03:56:43.717Z,100879.31
2022-11-27T03:59:28.652Z,100872.75
2022-11-27T04:01:55.884Z,100877.59
2022-11-27T04:04:22.832Z,100878.53
2022-11-27T04:06:49.940Z,100872.66
2022-11-27T04:09:16.740Z,100866.88
2022-11-27T04:11:43.675Z,100871.41
2022-11-27T04:14:10.558Z,100856.25
2022-11-27T04:16:37.512Z,100870.16
2022-11-27T04:19:04.392Z,100871.13
2022-11-27T04:21:31.265Z,100873.56
2022-11-27T04:23:58.045Z,100870.34
2022-11-27T04:26:25.080Z,100863.28
2022-11-27T04:28:51.925Z,100860.38
2022-11-27T04:31:18.856Z,100869.78
2022-11-27T04:33:45.801Z,100865.72
2022-11-27T04:36:12.622Z,100860.53
2022-11-27T04:38:39.443Z,100864.28
2022-11-27T04:41:06.348Z,100849.13
2022-11-27T04:43:33.212Z,100863.75
2022-11-27T04:46:00.104Z,100864.78
2022-11-27T04:48:27.033Z,100873.75
2022-11-27T04:50:55.834Z,100867.84
2022-11-27T04:53:22.782Z,100863.69
2022-11-27T04:55:51.549Z,100854.66
2022-11-27T04:58:18.581Z,100865.19
2022-11-27T05:00:45.504Z,100855.91
2022-11-27T05:03:12.576Z,100835.34
2022-11-27T05:05:39.684Z,100858.34
2022-11-27T05:08:06.534Z,100863.44
2022-11-27T05:10:33.395Z,100858.59
2022-11-27T05:13:00.223Z,100857.69
2022-11-27T05:15:27.045Z,100860.28
2022-11-27T05:17:53.946Z,100853.41
2022-11-27T05:20:20.795Z,100856.81
2022-11-27T05:22:49.729Z,100853.03
2022-11-27T05:25:16.661Z,100852.69
2022-11-27T05:27:43.567Z,100858.66
2022-11-27T05:30:10.676Z,100860.63
2022-11-27T05:32:37.876Z,100865.53
2022-11-27T05:35:04.922Z,100855.06
2022-11-27T05:37:31.740Z,100871.41
2022-11-27T05:39:59.094Z,100872.13
2022-11-27T05:42:26.002Z,100863.69
2022-11-27T05:44:58.085Z,100860.19
2022-11-27T05:47:25.529Z,100866.75
2022-11-27T05:49:52.450Z,100868.66
2022-11-27T05:52:19.335Z,100876.38
2022-11-27T05:54:46.530Z,100876.56
2022-11-27T05:57:13.395Z,100866.16
2022-11-27T05:59:40.348Z,100868.34
2022-11-27T06:02:07.430Z,100872.88
2022-11-27T06:04:34.790Z,100864.72
2022-11-27T06:07:01.853Z,100864.75
2022-11-27T06:09:28.897Z,100870.47
2022-11-27T06:11:55.818Z,100871.88
2022-11-27T06:14:22.697Z,100873.63
2022-11-27T06:16:50.054Z,100865.50
2022-11-27T06:19:17.062Z,100876.75
2022-11-27T06:21:43.958Z,100870.72
2022-11-27T06:24:11.120Z,100857.38
2022-11-27T06:26:38.044Z,100876.00
2022-11-27T06:29:05.237Z,100869.22
2022-11-27T06:31:33.684Z,100877.88
2022-11-27T06:34:01.187Z,100869.16
2022-11-27T06:36:34.691Z,100872.56
2022-11-27T06:39:04.559Z,100870.47
2022-11-27T06:41:32.492Z,100868.31
2022-11-27T06:44:00.739Z,100860.84
2022-11-27T06:46:28.923Z,100859.19
2022-11-27T06:48:57.290Z,100848.75
2022-11-27T06:51:27.113Z,100854.56
2022-11-27T06:53:54.367Z,100856.88
2022-11-27T06:56:24.053Z,100867.06
2022-11-27T06:58:55.927Z,100873.06
2022-11-27T07:01:23.927Z,100870.22
2022-11-27T07:03:51.014Z,100865.72
2022-11-27T07:06:23.656Z,100866.03
2022-11-27T07:08:50.637Z,100864.00
2022-11-27T07:11:20.637Z,100860.09
2022-11-27T07:13:49.026Z,100860.84
2022-11-27T07:16:17.528Z,100869.59
2022-11-27T07:18:47.294Z,100866.03
2022-11-27T07:21:14.254Z,100867.56
2022-11-27T07:23:41.222Z,100867.28
2022-11-27T07:26:10.511Z,100867.00
2022-11-27T07:28:38.039Z,100876.88
2022-11-27T07:31:05.006Z,100878.44
2022-11-27T07:33:32.731Z,100884.56
2022-11-27T07:36:05.464Z,100901.16
2022-11-27T07:38:32.883Z,100902.41
2022-11-27T07:41:01.926Z,100897.31
2022-11-27T07:43:29.575Z,100892.56
2022-11-27T07:45:57.325Z,100885.50
2022-11-27T07:48:25.337Z,100881.91
2022-11-27T07:50:52.226Z,100895.75
2022-11-27T07:53:19.208Z,100879.75
2022-11-27T07:55:46.273Z,100880.41
2022-11-27T07:58:13.279Z,100882.13
2022-11-27T08:00:40.339Z,100893.44
2022-11-27T08:03:07.181Z,100890.34
2022-11-27T08:05:35.697Z,100890.47
2022-11-27T08:08:04.473Z,100883.81
2022-11-27T08:10:34.877Z,100895.69
2022-11-27T08:13:01.737Z,100892.16
2022-11-27T08:15:28.769Z,100898.59
2022-11-27T08:17:55.741Z,100890.22
2022-11-27T08:20:23.162Z,100887.38
2022-11-27T08:22:50.578Z,100883.69
2022-11-27T08:25:18.190Z,100891.56
2022-11-27T08:27:45.027Z,100895.28
2022-11-27T08:30:12.088Z,100896.13
2022-11-27T08:32:40.269Z,100884.84
2022-11-27T08:35:08.467Z,100889.59
2022-11-27T08:37:36.094Z,100885.91
2022-11-27T08:40:03.895Z,100880.38
2022-11-27T08:42:30.985Z,100879.28
2022-11-27T08:44:57.882Z,100874.72
2022-11-27T08:47:24.851Z,100871.50
2022-11-27T08:49:52.634Z,100866.97
2022-11-27T08:52:20.677Z,100867.59
2022-11-27T08:54:47.574Z,100867.03
2022-11-27T08:57:14.389Z,100872.91
2022-11-27T08:59:41.375Z,100866.66
2022-11-27T09:02:12.434Z,100861.69
2022-11-27T09:04:39.557Z,100861.84
2022-11-27T09:07:06.774Z,100849.66
2022-11-27T09:09:33.661Z,100855.13
2022-11-27T09:12:00.519Z,100850.09
2022-11-27T09:14:27.396Z,100847.38
2022-11-27T09:16:54.633Z,100848.59
2022-11-27T09:19:21.815Z,100840.34
2022-11-27T09:21:50.558Z,100833.56
2022-11-27T09:24:17.641Z,100827.66
2022-11-27T09:26:44.975Z,100824.84
2022-11-27T09:29:11.917Z,100817.13
2022-11-27T09:31:38.744Z,100812.34
2022-11-27T09:34:06.359Z,100811.44
2022-11-27T09:36:33.255Z,100808.59
2022-11-27T09:39:00.491Z,100803.38
2022-11-27T09:41:38.849Z,100795.75
2022-11-27T09:44:14.823Z,100793.28
2022-11-27T09:46:42.845Z,100787.34
2022-11-27T09:49:14.747Z,100793.28
2022-11-27T09:52:12.554Z,100786.59
2022-11-27T09:54:57.835Z,100777.47
2022-11-27T09:57:46.448Z,100785.34
2022-11-27T10:00:17.736Z,100780.78
2022-11-27T10:02:45.350Z,100778.31
2022-11-27T10:05:29.096Z,100779.19
2022-11-27T10:08:21.035Z,100782.66
2022-11-27T10:10:53.930Z,100772.47
2022-11-27T10:13:32.928Z,100775.13
2022-11-27T10:16:15.042Z,100776.31
2022-11-27T10:18:47.998Z,100771.13
2022-11-27T10:21:36.070Z,100750.75
2022-11-27T10:24:10.392Z,100740.63
2022-11-27T10:26:41.803Z,100751.34
2022-11-27T10:29:23.818Z,100740.19
2022-11-27T10:31:57.421Z,100732.44
2022-11-27T10:34:48.592Z,100738.81
2022-11-27T10:37:29.172Z,100732.09
2022-11-27T10:40:08.640Z,100726.91
2022-11-27T10:42:42.221Z,100725.56
2022-11-27T10:45:45.465Z,100720.81
2022-11-27T10:48:13.618Z,100716.78
2022-11-27T10:50:41.978Z,100713.72
2022-11-27T10:53:14.786Z,100716.81
2022-11-27T10:56:09.849Z,100709.38
2022-11-27T10:58:58.096Z,100707.41
2022-11-27T11:01:27.285Z,100697.50
2022-11-27T11:04:24.646Z,100699.91
2022-11-27T11:06:55.916Z,100699.34
2022-11-27T11:09:30.201Z,100697.88
2022-11-27T11:12:08.080Z,100696.00
2022-11-27T11:14:35.018Z,100690.72
2022-11-27T11:17:01.903Z,100684.75
2022-11-27T11:19:35.901Z,100688.56
2022-11-27T11:22:20.764Z,100678.59
2022-11-27T11:24:52.676Z,100670.19
2022-11-27T11:27:32.352Z,100668.03
2022-11-27T11:30:02.919Z,100671.09
2022-11-27T11:32:36.142Z,100661.22
2022-11-27T11:35:32.804Z,100663.06
2022-11-27T11:38:01.612Z,100667.66
2022-11-27T11:40:33.819Z,100672.22
2022-11-27T11:43:28.467Z,100660.34
2022-11-27T11:46:04.570Z,100652.91
2022-11-27T11:48:31.525Z,100655.44
2022-11-27T11:51:01.122Z,100656.19
2022-11-27T11:53:37.617Z,100655.13
2022-11-27T11:56:37.999Z,100652.91
2022-11-27T11:59:22.899Z,100654.81
2022-11-27T12:02:02.166Z,100642.25
2022-11-27T12:04:50.144Z,100640.63
2022-11-27T12:07:26.228Z,100640.69
2022-11-27T12:09:56.212Z,100635.94
2022-11-27T12:12:56.617Z,100638.72
2022-11-27T12:15:34.578Z,100634.78
2022-11-27T12:18:37.436Z,100632.81
2022-11-27T12:21:37.983Z,100620.03
2022-11-27T12:24:07.541Z,100623.41
2022-11-27T12:26:52.688Z,100626.38
2022-11-27T12:29:47.250Z,100636.25
2022-11-27T12:32:31.962Z,100634.63
2022-11-27T12:35:10.919Z,100634.09
2022-11-27T12:37:51.889Z,100630.41
2022-11-27T12:40:39.938Z,100623.63
2022-11-27T12:43:18.911Z,100631.75
2022-11-27T12:45:51.516Z,100636.09
2022-11-27T12:48:34.349Z,100636.47
2022-11-27T12:51:06.554Z,100631.38
2022-11-27T12:53:52.203Z,100638.63
2022-11-27T12:56:32.264Z,100640.41
2022-11-27T12:59:12.087Z,100635.81
2022-11-27T13:02:13.697Z,100631.09
2022-11-27T13:04:50.022Z,100629.97
2022-11-27T13:07:38.760Z,100636.41
2022-11-27T13:10:32.268Z,100630.84
2022-11-27T13:13:13.225Z,100625.34
2022-11-27T13:15:43.118Z,100644.41
2022-11-27T13:18:30.319Z,100643.25
2022-11-27T13:21:04.193Z,100631.88
2022-11-27T13:23:32.851Z,100631.50
2022-11-27T13:26:04.384Z,100632.66
2022-11-27T13:28:43.144Z,100634.53
2022-11-27T13:31:24.519Z,100636.44
2022-11-27T13:33:58.197Z,100630.56
2022-11-27T13:36:33.366Z,100642.03
2022-11-27T13:39:04.887Z,100642.03
2022-11-27T13:41:41.001Z,100640.03
2022-11-27T13:44:26.248Z,100649.50
2022-11-27T13:46:55.949Z,100657.09
2022-11-27T13:49:30.452Z,100643.56
2022-11-27T13:52:20.659Z,100652.56
2022-11-27T13:54:54.864Z,100649.94
2022-11-27T13:57:22.886Z,100641.31
2022-11-27T14:00:01.039Z,100644.59
2022-11-27T14:02:46.142Z,100647.28
2022-11-27T14:05:18.981Z,100645.66
2022-11-27T14:07:48.809Z,100639.06
2022-11-27T14:10:18.190Z,100643.25
2022-11-27T14:13:01.051Z,100647.25
2022-11-27T14:15:33.450Z,100644.72
2022-11-27T14:18:21.355Z,100645.72
2022-11-27T14:21:01.423Z,100645.19
2022-11-27T14:23:32.854Z,100649.06
2022-11-27T14:26:20.118Z,100647.00
2022-11-27T14:28:52.148Z,100638.41
2022-11-27T14:31:28.277Z,100642.13
2022-11-27T14:36:42.656Z,100637.53
2022-11-27T14:39:49.425Z,100640.69
2022-11-27T14:42:39.081Z,100635.69
2022-11-27T14:45:12.581Z,100638.31
2022-11-27T14:47:45.598Z,100641.28
2022-11-27T14:50:14.601Z,100638.59
2022-11-27T14:52:47.216Z,100633.56
2022-11-27T14:55:16.300Z,100640.13
2022-11-27T14:57:44.358Z,100638.59
2022-11-27T15:00:27.343Z,100634.91
2022-11-27T15:02:54.746Z,100627.66
2022-11-27T15:05:27.763Z,100640.97
2022-11-27T15:07:57.643Z,100632.88
2022-11-27T15:10:38.347Z,100639.38
2022-11-27T15:13:08.186Z,100622.06
2022-11-27T15:15:44.238Z,100633.72
2022-11-27T15:18:21.930Z,100629.50
2022-11-27T15:20:49.809Z,100636.03
2022-11-27T15:23:28.020Z,100632.56
2022-11-27T15:26:08.310Z,100643.19
2022-11-27T15:28:52.681Z,100633.88
2022-11-27T15:31:26.280Z,100649.16
2022-11-27T15:34:14.610Z,100650.09
2022-11-27T15:36:52.167Z,100629.13
2022-11-27T15:39:44.167Z,100640.31
2022-11-27T15:42:12.127Z,100640.47
2022-11-27T15:44:40.778Z,100647.28
2022-11-27T15:47:21.869Z,100642.44
2022-11-27T15:49:50.036Z,100638.00
2022-11-27T15:52:18.106Z,100641.31
2022-11-27T15:54:46.106Z,100638.41
2022-11-27T15:57:14.031Z,100631.13
2022-11-27T15:59:41.817Z,100624.97
2022-11-27T16:02:17.474Z,100630.09
2022-11-27T16:04:45.631Z,100630.69
2022-11-27T16:07:13.381Z,100633.91
2022-11-27T16:09:41.290Z,100621.25
2022-11-27T16:12:09.152Z,100628.47
2022-11-27T16:14:37.080Z,100629.84
2022-11-27T16:17:05.138Z,100625.16
2022-11-27T16:19:33.050Z,100622.34
2022-11-27T16:22:01.224Z,100624.13
2022-11-27T16:24:29.249Z,100630.69
2022-11-27T16:26:59.645Z,100629.94
2022-11-27T16:29:27.500Z,100627.28
2022-11-27T16:31:57.013Z,100636.75
2022-11-27T16:34:25.206Z,100627.44
2022-11-27T16:36:53.490Z,100633.31
2022-11-27T16:39:21.360Z,100624.47
2022-11-27T16:41:49.247Z,100628.66
2022-11-27T16:44:18.984Z,100619.19
2022-11-27T16:46:46.978Z,100630.16
2022-11-27T16:49:14.951Z,100628.56
2022-11-27T16:51:43.903Z,100637.72
2022-11-27T16:54:13.727Z,100649.13
2022-11-27T16:56:43.087Z,100629.50
2022-11-27T16:59:13.311Z,100648.13
2022-11-27T17:01:42.706Z,100644.28
2022-11-27T17:04:18.401Z,100640.88
2022-11-27T17:06:48.118Z,100638.66
2022-11-27T17:09:16.271Z,100639.00
2022-11-27T17:11:50.834Z,100646.94
2022-11-27T17:14:20.582Z,100642.91
2022-11-27T17:16:49.922Z,100638.22
2022-11-27T17:19:18.758Z,100631.88
2022-11-27T17:21:47.480Z,100639.03
2022-11-27T17:24:16.664Z,100620.84
2022-11-27T17:26:49.998Z,100615.16
2022-11-27T17:29:21.802Z,100617.81
2022-11-27T17:31:51.310Z,100612.38
2022-11-27T17:34:20.812Z,100620.53
2022-11-27T17:36:53.717Z,100617.06
2022-11-27T17:39:22.134Z,100610.34
2022-11-27T17:41:50.406Z,100615.44
2022-11-27T17:44:18.261Z,100625.13
2022-11-27T17:46:49.993Z,100627.00
2022-11-27T17:49:19.729Z,100625.97
2022-11-27T17:51:50.210Z,100620.34
2022-11-27T17:54:21.562Z,100615.44
2022-11-27T17:56:51.692Z,100612.19
2022-11-27T17:59:21.384Z,100622.28
2022-11-27T18:02:01.021Z,100604.66
2022-11-27T18:04:31.089Z,100614.28
2022-11-27T18:06:59.460Z,100612.69
2022-11-27T18:09:29.738Z,100612.44
2022-11-27T18:11:58.604Z,100614.19
2022-11-27T18:14:26.676Z,100607.06
2022-11-27T18:16:54.829Z,100605.19
2022-11-27T18:19:22.993Z,100604.28
2022-11-27T18:21:51.046Z,100596.16
2022-11-27T18:24:23.867Z,100596.59
2022-11-27T18:27:10.364Z,100597.28
2022-11-27T18:29:42.051Z,100597.75
2022-11-27T18:32:12.221Z,100594.81
2022-11-27T18:34:41.185Z,100577.75
2022-11-27T18:37:10.100Z,100592.91
2022-11-27T18:39:40.171Z,100590.66
2022-11-27T18:42:08.703Z,100600.25
2022-11-27T18:44:44.647Z,100592.75
2022-11-27T18:47:14.889Z,100587.81
2022-11-27T18:49:45.864Z,100589.63
2022-11-27T18:52:14.871Z,100592.91
2022-11-27T18:54:44.240Z,100598.00
2022-11-27T18:57:13.325Z,100590.09
2022-11-27T18:59:44.803Z,100596.22
2022-11-27T19:02:13.726Z,100604.56
2022-11-27T19:04:44.437Z,100606.72
2022-11-27T19:07:13.058Z,100601.59
2022-11-27T19:09:44.114Z,100588.03
2022-11-27T19:12:12.997Z,100595.56
2022-11-27T19:14:41.410Z,100596.16
2022-11-27T19:17:09.649Z,100596.06
2022-11-27T19:20:04.447Z,100598.69
2022-11-27T19:22:27.371Z,100588.13
2022-11-27T19:24:57.300Z,100581.63
2022-11-27T19:27:25.328Z,100587.69
2022-11-27T19:29:53.370Z,100585.28
2022-11-27T19:32:24.085Z,100590.22
2022-11-27T19:34:52.369Z,100590.38
2022-11-27T19:37:34.105Z,100593.19
2022-11-27T19:40:05.739Z,100584.25
2022-11-27T19:42:33.882Z,100597.75
2022-11-27T19:45:02.524Z,100586.84
2022-11-27T19:47:30.551Z,100596.19
2022-11-27T19:49:58.413Z,100601.56
2022-11-27T19:52:26.509Z,100602.06
2022-11-27T19:54:54.491Z,100615.56
2022-11-27T19:57:23.910Z,100613.69
2022-11-27T19:59:52.070Z,100600.22
2022-11-27T20:02:20.333Z,100606.56
2022-11-27T20:04:48.424Z,100603.88
2022-11-27T20:07:16.611Z,100607.53
2022-11-27T20:09:44.957Z,100609.69
2022-11-27T20:12:13.169Z,100599.06
2022-11-27T20:14:41.570Z,100593.72
2022-11-27T20:17:09.835Z,100588.63
2022-11-27T20:19:38.941Z,100588.41
2022-11-27T20:22:07.482Z,100585.53
2022-11-27T20:24:44.076Z,100581.91
2022-11-27T20:27:23.905Z,100588.69
2022-11-27T20:29:56.135Z,100587.13
2022-11-27T20:32:26.894Z,100583.03
2022-11-27T20:34:57.453Z,100588.63
2022-11-27T20:37:25.739Z,100579.25
2022-11-27T20:39:55.266Z,100583.97
2022-11-27T20:42:24.550Z,100571.66
2022-11-27T20:44:55.087Z,100574.28
2022-11-27T20:47:26.089Z,100575.06
2022-11-27T20:49:53.955Z,100576.66
2022-11-27T20:52:22.097Z,100572.66
2022-11-27T20:54:50.248Z,100569.72
2022-11-27T20:57:18.458Z,100576.19
2022-11-27T20:59:46.498Z,100582.03
2022-11-27T21:02:15.228Z,100580.47
2022-11-27T21:04:48.662Z,100568.25
2022-11-27T21:07:16.334Z,100574.06
2022-11-27T21:09:44.044Z,100576.38
2022-11-27T21:12:13.859Z,100578.41
2022-11-27T21:14:41.631Z,100570.94
2022-11-27T21:17:09.338Z,100570.81
2022-11-27T21:19:36.837Z,100561.22
2022-11-27T21:22:04.493Z,100572.19
2022-11-27T21:24:32.030Z,100561.66
2022-11-27T21:26:59.325Z,100567.38
2022-11-27T21:29:29.330Z,100562.84
2022-11-27T21:31:57.267Z,100560.72
2022-11-27T21:34:25.431Z,100557.94
2022-11-27T21:36:52.404Z,100558.78
2022-11-27T21:39:22.669Z,100558.41
2022-11-27T21:41:51.840Z,100558.09
2022-11-27T21:44:20.355Z,100554.59
2022-11-27T21:46:48.033Z,100548.56
2022-11-27T21:49:18.441Z,100538.78
2022-11-27T21:51:45.608Z,100551.00
2022-11-27T21:54:15.365Z,100546.06
2022-11-27T21:56:42.375Z,100532.78
2022-11-27T21:59:13.257Z,100555.66
2022-11-27T22:01:41.048Z,100540.78
2022-11-27T22:04:08.064Z,100543.28
2022-11-27T22:06:38.274Z,100543.81
2022-11-27T22:09:09.321Z,100537.47
2022-11-27T22:11:40.878Z,100535.06
2022-11-27T22:14:08.927Z,100535.44
2022-11-27T22:16:44.369Z,100534.91
2022-11-27T22:19:12.660Z,100535.13
2022-11-27T22:21:39.884Z,100533.72
2022-11-27T22:24:07.769Z,100524.59
2022-11-27T22:26:34.639Z,100531.47
2022-11-27T22:29:03.076Z,100525.09
2022-11-27T22:31:33.044Z,100519.09
2022-11-27T22:34:00.906Z,100510.13
2022-11-27T22:36:33.709Z,100508.56
2022-11-27T22:39:04.153Z,100508.00
2022-11-27T22:41:36.057Z,100492.94
2022-11-27T22:44:08.102Z,100504.88
2022-11-27T22:46:36.766Z,100506.78
2022-11-27T22:49:06.817Z,100496.03
2022-11-27T22:51:36.243Z,100493.63
2022-11-27T22:54:04.536Z,100492.44
2022-11-27T22:56:33.857Z,100498.19
2022-11-27T22:59:30.360Z,100490.41
2022-11-27T23:01:49.283Z,100485.38
2022-11-27T23:04:17.017Z,100485.44
2022-11-27T23:06:48.604Z,100478.56
2022-11-27T23:09:18.159Z,100486.31
2022-11-27T23:11:45.743Z,100480.78
2022-11-27T23:14:12.628Z,100478.53
2022-11-27T23:16:40.133Z,100484.09
2022-11-27T23:19:07.207Z,100482.22
2022-11-27T23:21:37.549Z,100470.94
2022-11-27T23:24:05.709Z,100481.88
2022-11-27T23:26:32.985Z,100477.75
2022-11-27T23:29:00.097Z,100480.81
2022-11-27T23:31:31.209Z,100483.88
2022-11-27T23:34:03.739Z,100484.84
2022-11-27T23:36:32.352Z,100483.22
2022-11-27T23:39:01.223Z,100485.56
2022-11-27T23:41:28.192Z,100483.03
2022-11-27T23:43:55.748Z,100480.16
2022-11-27T23:46:26.362Z,100472.69
2022-11-27T23:48:58.478Z,100476.78
2022-11-27T23:51:28.740Z,100466.47
2022-11-27T23:53:55.775Z,100470.69
2022-11-27T23:56:25.724Z,100469.38
2022-11-27T23:58:54.708Z,100464.91
